Time;durP1;ratioP1;P1;durP2;ratioP2;P2;SDS_P1;SDS_P2;PMS_P1;PMS_P2;Temp;Humidity;BMP_temperature;BMP_pressure;BME280_temperature;BME280_humidity;BME280_pressure;Samples;Min_cycle;Max_cycle;Signal;HPM_P1;HPM_P2
2021/11/20 00:01:24;;;;;;;15.35;11.00;;;5.60;99.90;;;;;;5068949;28;20230;-67
2021/11/20 00:03:51;;;;;;;15.82;11.77;;;5.60;99.90;;;;;;5069907;28;20706;-66
2021/11/20 00:06:23;;;;;;;15.10;10.80;;;5.50;99.90;;;;;;5069847;28;20211;-67
2021/11/20 00:08:50;;;;;;;15.95;10.98;;;5.50;99.90;;;;;;5069076;28;20211;-66
2021/11/20 00:11:19;;;;;;;16.42;11.10;;;5.50;99.90;;;;;;5069461;28;20212;-66
2021/11/20 00:13:48;;;;;;;14.93;10.13;;;5.50;99.90;;;;;;5069982;28;20209;-66
2021/11/20 00:16:16;;;;;;;14.52;10.05;;;5.60;99.90;;;;;;5069761;28;20211;-67
2021/11/20 00:18:43;;;;;;;17.42;10.38;;;5.60;99.90;;;;;;5055933;28;20193;-65
2021/11/20 00:21:13;;;;;;;13.70;9.80;;;5.60;99.90;;;;;;5049567;28;20221;-66
2021/11/20 00:23:44;;;;;;;16.13;9.85;;;5.60;99.90;;;;;;5049210;28;20236;-66
2021/11/20 00:26:14;;;;;;;16.88;10.70;;;5.50;99.90;;;;;;5049872;28;20205;-66
2021/11/20 00:29:04;;;;;;;14.60;11.10;;;5.50;99.90;;;;;;5049143;28;20211;-67
2021/11/20 00:31:37;;;;;;;16.45;10.20;;;5.60;99.90;;;;;;5048729;28;20193;-65
2021/11/20 00:34:05;;;;;;;13.43;9.63;;;5.60;99.90;;;;;;5049776;28;20319;-67
2021/11/20 00:36:32;;;;;;;13.52;9.80;;;5.60;99.90;;;;;;5049380;28;20263;-66
2021/11/20 00:39:01;;;;;;;15.65;10.20;;;5.60;99.90;;;;;;5049273;28;20205;-66
2021/11/20 00:41:29;;;;;;;13.57;10.15;;;5.50;99.90;;;;;;5048562;28;20224;-66
2021/11/20 00:43:57;;;;;;;13.32;10.45;;;5.50;99.90;;;;;;5049697;28;20311;-65
2021/11/20 00:46:29;;;;;;;14.25;10.82;;;5.50;99.90;;;;;;5049183;28;20211;-66
2021/11/20 00:48:56;;;;;;;14.50;10.68;;;5.50;99.90;;;;;;5048875;28;20211;-67
2021/11/20 00:51:26;;;;;;;16.27;10.68;;;5.60;99.90;;;;;;5048948;28;20230;-67
2021/11/20 00:53:53;;;;;;;13.57;10.18;;;5.50;99.90;;;;;;5049471;28;20197;-66
2021/11/20 00:56:24;;;;;;;12.98;9.85;;;5.50;99.90;;;;;;5049507;28;20205;-67
2021/11/20 00:58:52;;;;;;;13.75;10.25;;;5.50;99.90;;;;;;5051023;28;20208;-66
2021/11/20 01:01:27;;;;;;;15.68;10.57;;;5.60;99.90;;;;;;5053336;28;20232;-66
2021/11/20 01:03:54;;;;;;;14.73;10.20;;;5.60;99.90;;;;;;5054956;28;20207;-67
2021/11/20 01:06:21;;;;;;;15.23;10.23;;;5.50;99.90;;;;;;5053700;28;20209;-66
2021/11/20 01:08:50;;;;;;;16.48;10.77;;;5.40;99.90;;;;;;5041384;28;20213;-66
2021/11/20 01:11:20;;;;;;;15.13;11.70;;;5.40;99.90;;;;;;5033777;28;20193;-66
2021/11/20 01:13:49;;;;;;;17.60;11.68;;;5.40;99.90;;;;;;5034282;28;20206;-66
2021/11/20 01:16:19;;;;;;;18.77;11.85;;;5.40;99.90;;;;;;5034080;28;20212;-67
2021/11/20 01:18:46;;;;;;;17.40;12.13;;;5.40;99.90;;;;;;5034081;28;20681;-66
2021/11/20 01:21:15;;;;;;;18.00;11.55;;;5.40;99.90;;;;;;5032872;28;20222;-67
2021/11/20 01:23:42;;;;;;;13.82;10.35;;;5.40;99.90;;;;;;5034006;28;20212;-66
2021/11/20 01:26:11;;;;;;;15.15;10.77;;;5.50;99.90;;;;;;5033871;28;20210;-67
2021/11/20 01:28:39;;;;;;;19.30;11.90;;;5.50;99.90;;;;;;5034008;28;20571;-67
2021/11/20 01:31:11;;;;;;;16.80;10.98;;;5.50;99.90;;;;;;5033519;28;20578;-66
2021/11/20 01:33:40;;;;;;;18.52;12.07;;;5.50;99.90;;;;;;5033687;28;20205;-65
2021/11/20 01:36:08;;;;;;;17.30;11.18;;;5.40;99.90;;;;;;5033902;28;20224;-66
2021/11/20 01:38:35;;;;;;;17.25;12.52;;;5.30;99.90;;;;;;5033466;28;20605;-67
2021/11/20 01:41:03;;;;;;;16.63;11.65;;;5.30;99.90;;;;;;5033316;28;20221;-67
2021/11/20 01:43:29;;;;;;;16.30;10.75;;;5.30;99.90;;;;;;5033219;28;20212;-67
2021/11/20 01:46:12;;;;;;;16.00;11.55;;;5.30;99.90;;;;;;5033881;28;20210;-67
2021/11/20 01:48:55;;;;;;;17.98;11.85;;;5.40;99.90;;;;;;5033656;28;20209;-67
2021/11/20 01:51:25;;;;;;;14.30;11.40;;;5.40;99.90;;;;;;5032935;28;20224;-67
2021/11/20 01:53:57;;;;;;;14.45;10.02;;;5.50;99.90;;;;;;5033495;28;20202;-66
2021/11/20 01:56:31;;;;;;;13.30;9.55;;;5.50;99.90;;;;;;5033042;28;20233;-66
2021/11/20 01:59:04;;;;;;;13.93;10.05;;;5.50;99.90;;;;;;5033650;28;20206;-67
2021/11/20 02:01:37;;;;;;;17.83;11.23;;;5.50;99.90;;;;;;5032310;28;20222;-67
2021/11/20 02:04:08;;;;;;;14.40;10.35;;;5.60;99.90;;;;;;5033439;28;20205;-67
2021/11/20 02:06:42;;;;;;;14.43;9.70;;;5.60;99.90;;;;;;5033000;28;20225;-65
2021/11/20 02:09:12;;;;;;;14.95;10.63;;;5.60;99.90;;;;;;5032279;28;20213;-67
2021/11/20 02:11:42;;;;;;;13.00;9.68;;;5.60;99.90;;;;;;5032399;28;20206;-65
2021/11/20 02:14:11;;;;;;;15.27;9.70;;;5.60;99.90;;;;;;5033007;28;20202;-67
2021/11/20 02:16:44;;;;;;;14.60;10.18;;;5.60;99.90;;;;;;5033061;28;20595;-67
2021/11/20 02:19:14;;;;;;;16.92;11.07;;;5.60;99.90;;;;;;5032865;28;20209;-67
2021/11/20 02:21:48;;;;;;;13.95;9.65;;;5.60;99.90;;;;;;5032411;28;20222;-67
2021/11/20 02:24:14;;;;;;;15.93;11.50;;;5.60;99.90;;;;;;5032544;28;20206;-67
2021/11/20 02:26:41;;;;;;;15.60;10.50;;;5.60;99.90;;;;;;5032877;28;20225;-66
2021/11/20 02:29:11;;;;;;;17.23;11.45;;;5.60;99.90;;;;;;5032823;28;20198;-66
2021/11/20 02:31:40;;;;;;;13.95;10.25;;;5.70;99.90;;;;;;5032565;28;20575;-67
2021/11/20 02:34:07;;;;;;;14.65;10.02;;;5.70;99.90;;;;;;5032751;28;20198;-67
2021/11/20 02:36:34;;;;;;;17.48;10.00;;;5.70;99.90;;;;;;5032283;28;20221;-67
2021/11/20 02:39:05;;;;;;;13.90;9.65;;;5.70;99.90;;;;;;5032728;28;20202;-66
2021/11/20 02:41:34;;;;;;;15.70;10.48;;;5.50;99.90;;;;;;5031539;28;20225;-66
2021/11/20 02:44:03;;;;;;;16.00;10.35;;;5.50;99.90;;;;;;5032671;28;20204;-67
2021/11/20 02:46:33;;;;;;;15.43;10.57;;;5.50;99.90;;;;;;5032068;28;20225;-66
2021/11/20 02:49:02;;;;;;;15.45;10.40;;;5.50;99.90;;;;;;5032486;28;20202;-65
2021/11/20 02:51:31;;;;;;;16.45;10.57;;;5.50;99.90;;;;;;5201627;22;20229;-71
2021/11/20 02:54:00;;;;;;;14.38;10.95;;;5.50;99.90;;;;;;5024680;28;20198;-71
2021/11/20 02:56:32;;;;;;;18.45;11.70;;;5.50;99.90;;;;;;5032504;28;20233;-71
2021/11/20 02:58:59;;;;;;;17.30;12.07;;;5.40;99.90;;;;;;5032501;28;20197;-71
2021/11/20 03:01:30;;;;;;;18.50;11.55;;;5.50;99.90;;;;;;5032001;28;20221;-71
2021/11/20 03:03:57;;;;;;;22.15;14.18;;;5.50;99.90;;;;;;5032456;28;20209;-70
2021/11/20 03:06:26;;;;;;;19.80;12.18;;;5.40;99.90;;;;;;5032500;28;20296;-71
2021/11/20 03:08:54;;;;;;;19.63;12.30;;;5.40;99.90;;;;;;5032710;28;20224;-72
2021/11/20 03:11:21;;;;;;;22.08;12.10;;;5.30;99.90;;;;;;5031790;28;20303;-71
2021/11/20 03:13:52;;;;;;;25.00;13.82;;;5.30;99.90;;;;;;5032148;28;20198;-71
2021/11/20 03:16:19;;;;;;;25.40;13.68;;;5.40;99.90;;;;;;5032133;28;20205;-71
2021/11/20 03:18:46;;;;;;;22.15;14.30;;;5.40;99.90;;;;;;5032142;28;20201;-70
2021/11/20 03:21:14;;;;;;;23.48;13.48;;;5.40;99.90;;;;;;5031246;28;20228;-71
2021/11/20 03:23:48;;;;;;;18.27;12.25;;;5.40;99.90;;;;;;5032047;28;20673;-71
2021/11/20 03:26:16;;;;;;;21.00;11.93;;;5.40;99.90;;;;;;5032183;28;20201;-72
2021/11/20 03:28:43;;;;;;;21.88;13.43;;;5.50;99.90;;;;;;5031722;28;20214;-72
2021/11/20 03:31:10;;;;;;;22.38;13.07;;;5.50;99.90;;;;;;5031752;28;20201;-71
2021/11/20 03:33:37;;;;;;;20.50;12.40;;;5.40;99.90;;;;;;5031596;28;20233;-70
2021/11/20 03:36:04;;;;;;;21.40;12.75;;;5.40;99.90;;;;;;5032120;28;20201;-71
2021/11/20 03:38:32;;;;;;;23.90;13.40;;;5.40;99.90;;;;;;5031433;28;20608;-71
2021/11/20 03:41:00;;;;;;;26.73;13.80;;;5.50;99.90;;;;;;5031506;28;20218;-71
2021/11/20 03:43:28;;;;;;;18.70;11.80;;;5.50;99.90;;;;;;5031636;28;20212;-71
2021/11/20 03:45:55;;;;;;;20.48;11.68;;;5.50;99.90;;;;;;5031741;28;20267;-72
2021/11/20 03:48:21;;;;;;;18.40;11.85;;;5.60;99.90;;;;;;5031384;28;20221;-72
2021/11/20 03:50:49;;;;;;;23.98;12.57;;;5.60;99.90;;;;;;5030541;28;20205;-71
2021/11/20 03:53:16;;;;;;;19.13;12.30;;;5.60;99.90;;;;;;5031031;28;20198;-72
2021/11/20 03:55:46;;;;;;;16.58;10.50;;;5.60;99.90;;;;;;5030794;28;20205;-71
2021/11/20 03:58:17;;;;;;;16.77;10.75;;;5.70;99.90;;;;;;5031232;28;20228;-72
2021/11/20 04:00:47;;;;;;;17.90;11.35;;;5.70;99.90;;;;;;5031184;28;20205;-70
2021/11/20 04:03:20;;;;;;;17.98;11.02;;;5.60;99.90;;;;;;5030687;28;20206;-72
2021/11/20 04:05:47;;;;;;;17.50;10.38;;;5.70;99.90;;;;;;5031156;28;20239;-71
2021/11/20 04:08:14;;;;;;;17.50;11.27;;;5.70;99.90;;;;;;5031247;28;20228;-72
2021/11/20 04:10:41;;;;;;;16.98;10.60;;;5.70;99.90;;;;;;5031077;28;20209;-72
2021/11/20 04:13:08;;;;;;;18.20;11.00;;;5.70;99.90;;;;;;5030701;28;20604;-72
2021/11/20 04:15:36;;;;;;;15.43;10.10;;;5.70;99.90;;;;;;5031021;28;20206;-72
2021/11/20 04:18:03;;;;;;;19.25;10.05;;;5.70;99.90;;;;;;5031332;28;20232;-71
2021/11/20 04:20:30;;;;;;;15.55;11.43;;;5.70;99.90;;;;;;5030780;28;20197;-72
2021/11/20 04:22:57;;;;;;;14.40;9.75;;;5.80;99.90;;;;;;5030628;28;20221;-72
2021/11/20 04:25:25;;;;;;;15.35;10.57;;;5.80;99.90;;;;;;5030925;28;20205;-72
2021/11/20 04:27:52;;;;;;;15.38;10.18;;;5.80;99.90;;;;;;5030922;28;20226;-72
2021/11/20 04:30:21;;;;;;;15.85;9.95;;;5.80;99.90;;;;;;5030936;28;20205;-71
2021/11/20 04:32:50;;;;;;;17.00;10.40;;;5.80;99.90;;;;;;5029624;28;20202;-72
2021/11/20 04:35:19;;;;;;;13.60;9.00;;;5.80;99.90;;;;;;5031045;28;20580;-71
2021/11/20 04:37:46;;;;;;;16.38;10.27;;;5.80;99.90;;;;;;5030354;28;20230;-72
2021/11/20 04:40:14;;;;;;;16.17;9.75;;;5.80;99.90;;;;;;5031104;28;20446;-72
2021/11/20 04:42:41;;;;;;;14.93;9.07;;;5.80;99.90;;;;;;5029914;28;20603;-72
2021/11/20 04:45:10;;;;;;;13.25;9.23;;;5.70;99.90;;;;;;5030995;28;20204;-71
2021/11/20 04:47:36;;;;;;;15.68;9.43;;;5.80;99.90;;;;;;5030687;28;20320;-71
2021/11/20 04:50:08;;;;;;;15.02;8.13;;;5.80;99.90;;;;;;5030681;28;20670;-72
2021/11/20 04:52:34;;;;;;;14.85;9.85;;;5.80;99.90;;;;;;5030098;28;20202;-71
2021/11/20 04:55:01;;;;;;;13.77;9.18;;;5.80;99.90;;;;;;5030611;28;20228;-72
2021/11/20 04:57:28;;;;;;;14.38;8.60;;;5.80;99.90;;;;;;5030551;28;20228;-70
2021/11/20 04:59:55;;;;;;;14.10;8.40;;;5.80;99.90;;;;;;5030834;28;20213;-71
2021/11/20 05:02:22;;;;;;;13.50;9.13;;;5.80;99.90;;;;;;5030273;28;20581;-71
2021/11/20 05:04:48;;;;;;;14.35;8.70;;;5.80;99.90;;;;;;5030275;28;20217;-72
2021/11/20 05:07:17;;;;;;;13.32;8.98;;;5.80;99.90;;;;;;5030636;28;20225;-72
2021/11/20 05:09:43;;;;;;;13.07;8.00;;;5.80;99.90;;;;;;5030540;28;20205;-71
2021/11/20 05:12:11;;;;;;;11.68;7.93;;;5.80;99.90;;;;;;5029906;28;20574;-71
2021/11/20 05:14:39;;;;;;;11.15;7.10;;;5.80;99.90;;;;;;5030023;28;20209;-70
2021/11/20 05:17:06;;;;;;;12.25;8.15;;;5.80;99.90;;;;;;5030237;28;20221;-71
2021/11/20 05:19:35;;;;;;;14.38;8.35;;;5.80;99.90;;;;;;5030143;28;20206;-71
2021/11/20 05:22:02;;;;;;;11.27;7.78;;;5.80;99.90;;;;;;5029753;28;20245;-71
2021/11/20 05:24:30;;;;;;;13.93;8.43;;;5.80;99.90;;;;;;5030217;28;20198;-71
2021/11/20 05:26:57;;;;;;;13.52;8.85;;;5.80;99.90;;;;;;5030176;28;20636;-72
2021/11/20 05:29:31;;;;;;;10.55;7.97;;;5.80;99.90;;;;;;5030029;28;20673;-71
2021/11/20 05:31:58;;;;;;;12.73;8.80;;;5.80;99.90;;;;;;5029891;28;20205;-71
2021/11/20 05:34:25;;;;;;;12.52;7.85;;;5.90;99.90;;;;;;5029796;28;20576;-70
2021/11/20 05:36:52;;;;;;;10.32;7.75;;;5.80;99.90;;;;;;5030137;28;20233;-71
2021/11/20 05:39:18;;;;;;;12.75;8.55;;;5.90;99.90;;;;;;5030251;28;20208;-72
2021/11/20 05:41:47;;;;;;;15.05;8.80;;;5.90;99.90;;;;;;5029123;28;20247;-71
2021/11/20 05:44:15;;;;;;;10.68;7.50;;;5.80;99.90;;;;;;5031495;28;20205;-70
2021/11/20 05:46:42;;;;;;;12.30;7.85;;;5.90;99.90;;;;;;5033348;28;20764;-71
2021/11/20 05:49:09;;;;;;;13.07;8.55;;;5.80;99.90;;;;;;5033834;28;20198;-72
2021/11/20 05:51:37;;;;;;;14.52;7.70;;;5.80;99.90;;;;;;5032889;28;20213;-72
2021/11/20 05:54:04;;;;;;;13.40;8.68;;;5.90;99.90;;;;;;5033638;28;20252;-71
2021/11/20 05:56:31;;;;;;;13.80;8.30;;;5.90;99.90;;;;;;5033481;28;20597;-71
2021/11/20 05:58:59;;;;;;;14.52;8.55;;;5.80;99.90;;;;;;5033456;28;20201;-71
2021/11/20 06:01:26;;;;;;;11.38;7.53;;;5.90;99.90;;;;;;5032941;28;20689;-72
2021/11/20 06:03:53;;;;;;;13.85;8.10;;;5.90;99.90;;;;;;5033262;28;20198;-71
2021/11/20 06:06:20;;;;;;;12.70;7.85;;;5.90;99.90;;;;;;5033482;28;20628;-71
2021/11/20 06:08:47;;;;;;;13.75;8.63;;;5.90;99.90;;;;;;5033274;28;20212;-71
2021/11/20 06:11:15;;;;;;;12.93;8.93;;;5.80;99.90;;;;;;5032913;28;20197;-72
2021/11/20 06:13:41;;;;;;;15.32;8.95;;;5.80;99.90;;;;;;5033092;28;20700;-72
2021/11/20 06:16:09;;;;;;;13.30;8.73;;;5.80;99.90;;;;;;5033092;28;20197;-72
2021/11/20 06:18:36;;;;;;;11.85;8.85;;;5.80;99.90;;;;;;5027331;28;20198;-71
2021/11/20 06:21:04;;;;;;;11.77;7.75;;;5.80;99.90;;;;;;5023489;28;20201;-72
2021/11/20 06:23:31;;;;;;;13.25;8.55;;;5.80;99.90;;;;;;5021172;28;20225;-71
2021/11/20 06:25:59;;;;;;;10.63;7.60;;;5.80;99.90;;;;;;5021496;28;20205;-71
2021/11/20 06:28:27;;;;;;;11.82;8.52;;;5.80;99.90;;;;;;5020620;28;20214;-72
2021/11/20 06:30:54;;;;;;;11.70;8.07;;;5.80;99.90;;;;;;5021413;28;20205;-71
2021/11/20 06:33:22;;;;;;;13.77;8.35;;;5.80;99.90;;;;;;5022008;28;20852;-71
2021/11/20 06:35:49;;;;;;;10.10;7.38;;;5.80;99.90;;;;;;5021263;28;20206;-70
2021/11/20 06:38:16;;;;;;;11.50;8.02;;;5.90;99.90;;;;;;5021309;28;20570;-71
2021/11/20 06:40:46;;;;;;;12.65;8.35;;;5.90;99.90;;;;;;5021952;28;20194;-70
2021/11/20 06:43:15;;;;;;;12.60;8.57;;;5.80;99.90;;;;;;5020840;28;20218;-72
2021/11/20 06:45:44;;;;;;;11.20;7.60;;;5.80;99.90;;;;;;5020207;28;20210;-72
2021/11/20 06:48:12;;;;;;;13.57;8.90;;;5.90;99.90;;;;;;5020899;28;20221;-71
2021/11/20 06:50:42;;;;;;;14.43;9.23;;;5.90;99.90;;;;;;5022011;28;20206;-71
2021/11/20 06:53:10;;;;;;;13.90;8.80;;;5.90;99.90;;;;;;5020383;28;20693;-71
2021/11/20 06:55:38;;;;;;;15.30;9.85;;;5.80;99.90;;;;;;5019803;28;20198;-71
2021/11/20 06:58:32;;;;;;;12.32;8.93;;;5.90;99.90;;;;;;5022053;28;20222;-72
2021/11/20 07:01:02;;;;;;;12.43;7.47;;;5.90;99.90;;;;;;5025761;28;20204;-72
2021/11/20 07:03:32;;;;;;;14.02;10.45;;;5.90;99.90;;;;;;5030773;28;20468;-71
2021/11/20 07:06:03;;;;;;;14.07;9.13;;;5.90;99.90;;;;;;5032192;28;20650;-71
2021/11/20 07:08:31;;;;;;;11.88;8.95;;;6.00;99.90;;;;;;5031795;28;20221;-72
2021/11/20 07:10:59;;;;;;;11.57;8.07;;;6.00;99.90;;;;;;5031744;28;20202;-70
2021/11/20 07:13:25;;;;;;;11.88;8.95;;;5.90;99.90;;;;;;5031791;28;20212;-70
2021/11/20 07:15:53;;;;;;;11.75;9.00;;;5.90;99.90;;;;;;5032238;28;20213;-71
2021/11/20 07:18:22;;;;;;;12.90;8.10;;;6.00;99.90;;;;;;5031778;28;20280;-70
2021/11/20 07:20:49;;;;;;;10.80;8.18;;;5.90;99.90;;;;;;5031624;28;20202;-71
2021/11/20 07:23:17;;;;;;;12.40;8.23;;;6.00;99.90;;;;;;5031067;28;20229;-71
2021/11/20 07:25:44;;;;;;;15.02;9.85;;;6.00;99.90;;;;;;5031569;28;20205;-72
2021/11/20 07:28:12;;;;;;;12.52;8.60;;;6.00;99.90;;;;;;5031452;28;20233;-71
2021/11/20 07:30:40;;;;;;;14.52;9.57;;;6.00;99.90;;;;;;5031422;28;20209;-71
2021/11/20 07:33:09;;;;;;;9.77;7.45;;;6.00;99.90;;;;;;5024625;28;20202;-69
2021/11/20 07:35:38;;;;;;;11.57;6.78;;;6.10;99.90;;;;;;5029251;28;20632;-70
2021/11/20 07:38:06;;;;;;;12.02;8.38;;;6.10;99.90;;;;;;5027081;28;20586;-71
2021/11/20 07:40:37;;;;;;;12.20;8.02;;;6.10;99.90;;;;;;5021435;28;20211;-71
2021/11/20 07:43:04;;;;;;;13.52;8.25;;;6.10;99.90;;;;;;5019223;28;20607;-72
2021/11/20 07:45:31;;;;;;;11.82;8.30;;;6.20;99.90;;;;;;5026944;28;20568;-71
2021/11/20 07:48:03;;;;;;;12.38;8.27;;;6.20;99.90;;;;;;5030891;28;20643;-71
2021/11/20 07:50:30;;;;;;;12.13;8.88;;;6.20;99.90;;;;;;5031118;28;20214;-72
2021/11/20 07:52:57;;;;;;;12.48;8.98;;;6.20;99.90;;;;;;5030623;28;20200;-71
2021/11/20 07:55:23;;;;;;;12.38;8.77;;;6.20;99.90;;;;;;5030852;28;20208;-72
2021/11/20 07:57:51;;;;;;;12.02;8.45;;;6.30;99.90;;;;;;5030945;28;20225;-71
2021/11/20 08:00:21;;;;;;;13.23;8.20;;;6.20;99.90;;;;;;5030246;28;20202;-71
2021/11/20 08:02:48;;;;;;;12.95;8.93;;;6.20;99.90;;;;;;5011870;28;20222;-71
2021/11/20 08:05:15;;;;;;;10.63;8.25;;;6.30;99.90;;;;;;5010257;28;20202;-71
2021/11/20 08:07:42;;;;;;;13.30;8.95;;;6.30;99.90;;;;;;5010968;28;20277;-71
2021/11/20 08:10:12;;;;;;;12.10;8.68;;;6.30;99.90;;;;;;5011300;28;20226;-71
2021/11/20 08:12:38;;;;;;;12.52;8.77;;;6.30;99.90;;;;;;5010458;28;20202;-71
2021/11/20 08:15:08;;;;;;;13.82;8.95;;;6.20;99.90;;;;;;5010228;28;20195;-70
2021/11/20 08:17:35;;;;;;;14.00;9.50;;;6.10;99.90;;;;;;5029421;28;20222;-71
2021/11/20 08:20:04;;;;;;;12.57;8.80;;;6.20;99.90;;;;;;5030720;28;20205;-70
2021/11/20 08:22:31;;;;;;;16.17;9.48;;;6.20;99.90;;;;;;5030058;28;20268;-72
2021/11/20 08:24:57;;;;;;;11.50;8.50;;;6.10;99.90;;;;;;5030243;28;20202;-71
2021/11/20 08:27:24;;;;;;;13.05;8.63;;;6.10;99.90;;;;;;5030227;28;20230;-72
2021/11/20 08:29:51;;;;;;;14.45;10.20;;;6.10;99.90;;;;;;5030410;28;20213;-71
2021/11/20 08:32:22;;;;;;;12.98;9.07;;;6.10;99.90;;;;;;5029830;28;20198;-70
2021/11/20 08:34:48;;;;;;;13.70;8.93;;;6.20;99.90;;;;;;5030722;28;20240;-71
2021/11/20 08:37:16;;;;;;;13.13;8.68;;;6.20;99.90;;;;;;5029537;28;20651;-70
2021/11/20 08:39:43;;;;;;;13.05;8.73;;;6.30;99.90;;;;;;5030615;28;20251;-71
2021/11/20 08:42:10;;;;;;;11.10;7.25;;;6.30;99.90;;;;;;5029331;28;20202;-69
2021/11/20 08:44:37;;;;;;;10.48;7.22;;;6.30;99.90;;;;;;5030450;28;20198;-71
2021/11/20 08:47:04;;;;;;;12.30;7.57;;;6.20;99.90;;;;;;5030038;28;20225;-70
2021/11/20 08:51:58;;;;;;;12.83;8.13;;;6.20;99.90;;;;;;5067468;22;20228;-93
2021/11/20 08:54:25;;;;;;;10.65;7.35;;;6.10;99.90;;;;;;5057174;28;20201;-93
2021/11/20 08:56:57;;;;;;;13.20;8.95;;;6.00;99.90;;;;;;5057075;28;20201;-93
2021/11/20 08:59:25;;;;;;;15.80;8.20;;;6.00;99.90;;;;;;5059943;28;20299;-93
2021/11/20 09:01:55;;;;;;;11.18;7.43;;;6.00;99.90;;;;;;5056975;28;20304;-93
2021/11/20 09:04:25;;;;;;;11.55;7.53;;;6.10;99.90;;;;;;5057894;28;20243;-93
2021/11/20 09:06:57;;;;;;;11.57;7.85;;;6.20;99.90;;;;;;5056342;28;20215;-92
2021/11/20 09:09:29;;;;;;;11.38;8.05;;;6.20;99.90;;;;;;5055170;28;20220;-93
2021/11/20 09:12:00;;;;;;;13.52;8.20;;;6.20;99.90;;;;;;5055536;28;20603;-93
2021/11/20 09:14:31;;;;;;;13.77;7.55;;;6.20;99.90;;;;;;5055744;28;20216;-93
2021/11/20 09:16:59;;;;;;;12.18;8.18;;;6.20;99.90;;;;;;5054818;28;20201;-93
2021/11/20 09:19:27;;;;;;;10.65;7.07;;;6.30;99.90;;;;;;5056816;28;20204;-93
2021/11/20 09:21:54;;;;;;;9.25;7.07;;;6.30;99.90;;;;;;5058518;28;20236;-93
2021/11/20 09:24:21;;;;;;;10.02;6.80;;;6.30;99.90;;;;;;5058788;28;20232;-92
2021/11/20 09:26:49;;;;;;;10.18;6.90;;;6.40;99.90;;;;;;5058355;28;20205;-92
2021/11/20 09:29:17;;;;;;;9.52;6.93;;;6.50;99.90;;;;;;5058561;28;20198;-94
2021/11/20 09:31:46;;;;;;;7.80;6.03;;;6.50;99.90;;;;;;5059020;28;20224;-93
2021/11/20 09:34:36;;;;;;;9.30;6.00;;;6.40;99.90;;;;;;5060604;28;20212;-93
2021/11/20 09:37:19;;;;;;;11.35;6.88;;;6.30;99.90;;;;;;5057698;28;20266;-93
2021/11/20 09:39:53;;;;;;;11.35;7.00;;;6.30;99.90;;;;;;5058332;28;20205;-93
2021/11/20 09:42:42;;;;;;;8.25;5.68;;;6.40;99.90;;;;;;5059022;28;20197;-95
2021/11/20 09:45:13;;;;;;;7.35;4.85;;;6.50;99.90;;;;;;5060430;28;20261;-93
2021/11/20 09:47:45;;;;;;;7.78;5.40;;;6.50;99.90;;;;;;5058585;28;20216;-93
2021/11/20 09:50:18;;;;;;;8.88;5.05;;;6.60;99.90;;;;;;5060857;28;20717;-93
2021/11/20 09:52:47;;;;;;;5.72;5.13;;;6.60;99.90;;;;;;5061374;28;20225;-94
2021/11/20 09:55:18;;;;;;;12.55;5.13;;;6.60;99.90;;;;;;5061418;28;20307;-94
2021/11/20 09:57:50;;;;;;;6.75;4.80;;;6.60;99.90;;;;;;5060314;28;20425;-94
2021/11/20 10:01:06;;;;;;;5.57;4.72;;;6.60;99.90;;;;;;5060214;28;20231;-93
2021/11/20 10:03:42;;;;;;;7.25;4.70;;;6.60;99.90;;;;;;5060781;28;20236;-94
2021/11/20 10:06:12;;;;;;;6.28;4.40;;;6.70;99.90;;;;;;5061583;28;20205;-94
2021/11/20 10:08:42;;;;;;;6.30;4.32;;;6.70;99.90;;;;;;5060463;28;20205;-93
2021/11/20 10:11:33;;;;;;;6.20;4.43;;;6.70;99.90;;;;;;5062517;28;20236;-93
2021/11/20 10:17:24;;;;;;;5.93;4.07;;;6.70;99.90;;;;;;5064176;28;20240;-93
2021/11/20 10:19:55;;;;;;;4.05;3.40;;;6.80;99.90;;;;;;5062857;28;20212;-94
2021/11/20 10:22:31;;;;;;;4.47;3.45;;;6.80;99.90;;;;;;5060256;28;20212;-94
2021/11/20 10:25:14;;;;;;;4.72;3.58;;;6.80;99.90;;;;;;5058888;28;20201;-93
2021/11/20 10:27:55;;;;;;;3.45;3.15;;;6.70;99.90;;;;;;5058867;28;20205;-93
2021/11/20 10:30:37;;;;;;;3.95;2.95;;;6.80;99.90;;;;;;5057461;28;20229;-93
2021/11/20 10:33:08;;;;;;;4.43;4.03;;;6.80;99.90;;;;;;5060791;28;20205;-92
2021/11/20 10:35:38;;;;;;;4.65;3.47;;;6.80;99.90;;;;;;5062691;28;20217;-93
2021/11/20 10:38:11;;;;;;;4.07;3.60;;;6.80;99.90;;;;;;5063704;28;20196;-93
2021/11/20 10:40:42;;;;;;;6.80;3.95;;;6.80;99.90;;;;;;5060257;28;20225;-94
2021/11/20 10:43:26;;;;;;;4.22;3.47;;;6.80;99.90;;;;;;5059550;28;20229;-94
2021/11/20 10:46:01;;;;;;;6.80;4.20;;;6.80;99.90;;;;;;5059554;28;20207;-93
2021/11/20 10:48:38;;;;;;;5.32;3.85;;;6.70;99.90;;;;;;5059591;28;20212;-92
2021/11/20 10:51:42;;;;;;;5.22;4.03;;;6.70;99.90;;;;;;5058853;28;20265;-92
2021/11/20 10:54:58;;;;;;;7.70;4.05;;;6.70;99.90;;;;;;5019703;28;20215;-93
2021/11/20 10:57:44;;;;;;;4.72;3.50;;;6.70;99.90;;;;;;5059067;28;20216;-93
2021/11/20 11:00:25;;;;;;;4.75;3.90;;;6.80;99.90;;;;;;5061227;28;20224;-94
2021/11/20 11:03:27;;;;;;;7.68;4.57;;;6.90;99.90;;;;;;5062977;28;20225;-94
2021/11/20 11:06:25;;;;;;;6.10;4.45;;;7.00;99.90;;;;;;5062242;28;20550;-94
2021/11/20 11:08:57;;;;;;;5.70;4.40;;;7.00;99.90;;;;;;5061233;28;20205;-94
2021/11/20 11:14:56;;;;;;;4.35;3.78;;;7.00;99.90;;;;;;4972844;28;20272;-94
2021/11/20 11:17:34;;;;;;;5.13;3.90;;;7.00;99.90;;;;;;5066066;28;20231;-93
2021/11/20 11:20:10;;;;;;;5.88;5.15;;;7.00;99.90;;;;;;5073489;28;20217;-93
2021/11/20 11:22:40;;;;;;;5.72;4.43;;;7.00;99.90;;;;;;5072749;28;20207;-95
2021/11/20 11:25:13;;;;;;;5.38;4.20;;;6.80;99.90;;;;;;5067991;28;20561;-94
2021/11/20 11:27:51;;;;;;;5.38;4.78;;;6.60;99.90;;;;;;5060252;28;20217;-92
2021/11/20 11:30:25;;;;;;;7.88;4.95;;;6.60;99.90;;;;;;5060840;28;20682;-93
2021/11/20 11:32:52;;;;;;;5.25;4.30;;;6.50;99.90;;;;;;5059147;28;20557;-94
2021/11/20 11:35:25;;;;;;;5.65;4.22;;;6.60;99.90;;;;;;5058725;28;20201;-93
2021/11/20 11:38:20;;;;;;;4.88;4.30;;;6.60;99.90;;;;;;5058804;28;20658;-93
2021/11/20 11:41:00;;;;;;;6.72;4.75;;;6.70;99.90;;;;;;5057903;28;20817;-93
2021/11/20 11:43:36;;;;;;;6.47;5.78;;;6.80;99.90;;;;;;5057545;28;20312;-92
2021/11/20 11:46:34;;;;;;;6.25;4.80;;;6.80;99.90;;;;;;5056971;28;20204;-93
2021/11/20 11:49:39;;;;;;;6.20;5.15;;;6.80;99.90;;;;;;5059213;28;20235;-94
2021/11/20 11:52:44;;;;;;;6.32;4.30;;;6.90;99.90;;;;;;5057888;28;20243;-93
2021/11/20 11:55:21;;;;;;;5.40;4.50;;;6.90;99.90;;;;;;5058444;28;20197;-93
2021/11/20 11:58:09;;;;;;;5.88;4.05;;;7.00;99.90;;;;;;5056856;28;20211;-92
2021/11/20 12:00:39;;;;;;;4.72;4.20;;;6.90;99.90;;;;;;5055791;28;20225;-92
2021/11/20 12:03:13;;;;;;;4.70;4.20;;;6.90;99.90;;;;;;5056319;28;20197;-93
2021/11/20 12:06:07;;;;;;;6.15;4.88;;;7.00;99.90;;;;;;5058559;28;20201;-93
2021/11/20 12:09:23;;;;;;;6.57;4.50;;;6.90;99.90;;;;;;5021954;28;20201;-93
2021/11/20 12:12:28;;;;;;;4.88;4.38;;;7.00;99.90;;;;;;5059088;28;20229;-93
2021/11/20 12:15:21;;;;;;;4.95;4.05;;;7.00;99.90;;;;;;5057992;28;20262;-93
2021/11/20 12:18:11;;;;;;;6.32;4.95;;;7.10;99.90;;;;;;5057884;28;20205;-92
2021/11/20 12:21:26;;;;;;;8.18;5.10;;;7.10;99.90;;;;;;5058790;28;20233;-94
2021/11/20 12:24:34;;;;;;;6.00;4.88;;;7.20;99.90;;;;;;5058653;28;20225;-94
2021/11/20 12:30:45;;;;;;;;;;;;;;;;;;;;;
2021/11/20 12:34:03;;;;;;;7.43;5.13;;;7.20;99.90;;;;;;5057601;28;20243;-93
2021/11/20 12:37:03;;;;;;;6.78;5.15;;;7.10;99.90;;;;;;5058345;28;20216;-93
2021/11/20 12:43:01;;;;;;;7.63;5.60;;;7.00;99.90;;;;;;5051276;28;20195;-93
2021/11/20 12:45:58;;;;;;;8.60;5.65;;;7.00;99.90;;;;;;5039979;28;20222;-93
2021/11/20 12:49:05;;;;;;;6.07;4.93;;;7.00;99.90;;;;;;5033048;28;20217;-93
2021/11/20 12:52:02;;;;;;;8.23;6.13;;;7.00;99.90;;;;;;5039256;28;20245;-94
2021/11/20 12:55:12;;;;;;;7.95;5.50;;;7.00;99.90;;;;;;5040572;28;20201;-92
2021/11/20 12:57:44;;;;;;;9.57;6.22;;;6.90;99.90;;;;;;5039476;28;20209;-93
2021/11/20 13:00:20;;;;;;;7.70;5.22;;;6.70;99.90;;;;;;5039859;28;20255;-93
2021/11/20 13:03:04;;;;;;;7.22;5.50;;;6.70;99.90;;;;;;5037923;28;20205;-93
2021/11/20 13:05:55;;;;;;;8.82;4.90;;;6.80;99.90;;;;;;5040946;28;20221;-93
2021/11/20 13:08:34;;;;;;;6.30;5.25;;;6.80;99.90;;;;;;5038578;28;20212;-93
2021/11/20 13:11:29;;;;;;;8.05;6.22;;;6.90;99.90;;;;;;5034498;28;20229;-92
2021/11/20 13:14:14;;;;;;;8.38;6.70;;;6.80;99.90;;;;;;5029843;28;20201;-94
2021/11/20 13:17:07;;;;;;;7.60;5.50;;;6.70;99.90;;;;;;5037299;28;20212;-93
2021/11/20 13:19:55;;;;;;;7.00;5.32;;;6.60;99.90;;;;;;5038574;28;20206;-92
2021/11/20 13:22:25;;;;;;;7.18;5.22;;;6.60;99.90;;;;;;5039103;28;20221;-93
2021/11/20 13:24:55;;;;;;;9.18;6.40;;;6.60;99.90;;;;;;5037781;28;20226;-93
2021/11/20 13:27:57;;;;;;;7.43;6.00;;;6.60;99.90;;;;;;5036164;28;20701;-91
2021/11/20 13:30:29;;;;;;;7.43;5.60;;;6.70;99.90;;;;;;4977035;28;20231;-93
2021/11/20 13:33:34;;;;;;;7.90;7.10;;;6.80;99.90;;;;;;5029086;28;20221;-93